Terminal Aerodrome Forecast
Issued by NWS San Angelo, TX

Home | Current Version | Previous Version | Text Only | Print | Product List | Glossary On
Versions: 1 2 3 4 5 6 7 8 9 10 11 12 13 14 15 16
173
FTUS44 KSJT 240203 AAB
TAFABI
TAF AMD
KABI 240203Z 2402/2424 VRB06KT P6SM SCT110
     FM241000 01010KT P6SM VCSH BKN020=

USA.gov is the U.S. government's official web portal to all federal, state and local government web resources and services.